Time;durP1;ratioP1;P1;durP2;ratioP2;P2;SDS_P1;SDS_P2;PMS_P1;PMS_P2;Temp;Humidity;BMP_temperature;BMP_pressure;BME280_temperature;BME280_humidity;BME280_pressure;Samples;Min_cycle;Max_cycle;Signal;HPM_P1;HPM_P2
2021/08/05 00:00:50;;;;;;;3.53;2.63;;;15.50;99.90;;;;;;5048257;28;20850;-65
2021/08/05 00:03:17;;;;;;;2.40;2.20;;;15.40;99.90;;;;;;5063263;28;20461;-66
2021/08/05 00:05:44;;;;;;;3.00;2.50;;;15.40;99.90;;;;;;5068490;28;20482;-65
2021/08/05 00:08:12;;;;;;;4.53;2.60;;;15.40;99.90;;;;;;5068381;28;20471;-65
2021/08/05 00:10:39;;;;;;;2.90;2.70;;;15.40;99.90;;;;;;5067764;28;20459;-65
2021/08/05 00:13:05;;;;;;;2.90;2.70;;;15.30;99.90;;;;;;5068438;28;20697;-65
2021/08/05 00:15:32;;;;;;;3.27;2.77;;;15.30;99.90;;;;;;5068260;28;21012;-65
2021/08/05 00:17:59;;;;;;;2.77;2.40;;;15.30;99.90;;;;;;5068697;28;20517;-66
2021/08/05 00:20:26;;;;;;;3.23;2.70;;;15.30;99.90;;;;;;5067562;28;20478;-66
2021/08/05 00:22:53;;;;;;;2.70;2.50;;;15.30;99.90;;;;;;5068320;28;20988;-65
2021/08/05 00:25:21;;;;;;;2.90;2.60;;;15.30;99.90;;;;;;5068117;28;20485;-65
2021/08/05 00:27:47;;;;;;;3.20;2.90;;;15.30;99.90;;;;;;5068762;28;20832;-66
2021/08/05 00:30:14;;;;;;;3.10;2.70;;;15.20;99.90;;;;;;5067518;28;20462;-66
2021/08/05 00:32:41;;;;;;;2.30;2.10;;;15.20;99.90;;;;;;5068236;28;20458;-66
2021/08/05 00:35:09;;;;;;;3.30;2.93;;;15.20;99.90;;;;;;5068338;28;20481;-66
2021/08/05 00:37:36;;;;;;;5.90;3.07;;;15.20;99.90;;;;;;5068148;28;20470;-65
2021/08/05 00:40:04;;;;;;;2.73;2.53;;;15.20;99.90;;;;;;5067759;28;20475;-65
2021/08/05 00:42:32;;;;;;;3.10;2.90;;;15.20;99.90;;;;;;5070805;28;20454;-66
2021/08/05 00:44:58;;;;;;;2.77;2.57;;;15.20;99.90;;;;;;5072056;28;20600;-66
2021/08/05 00:47:27;;;;;;;2.60;2.40;;;15.20;99.90;;;;;;5071722;28;20462;-66
2021/08/05 00:49:54;;;;;;;2.90;2.53;;;15.20;99.90;;;;;;5071802;28;20497;-66
2021/08/05 00:52:21;;;;;;;4.00;2.53;;;15.10;99.90;;;;;;5071352;28;20462;-66
2021/08/05 00:54:48;;;;;;;3.20;2.50;;;15.10;99.90;;;;;;5071771;28;20463;-66
2021/08/05 00:57:15;;;;;;;3.03;2.53;;;15.10;99.90;;;;;;5071543;28;20466;-65
2021/08/05 00:59:43;;;;;;;2.80;2.50;;;15.10;99.90;;;;;;5071206;28;20965;-66
2021/08/05 01:02:13;;;;;;;3.57;2.87;;;15.10;99.90;;;;;;5071711;28;20497;-66
2021/08/05 01:04:40;;;;;;;4.50;2.60;;;15.10;99.90;;;;;;5071416;28;20462;-66
2021/08/05 01:07:16;;;;;;;3.13;2.83;;;15.10;99.90;;;;;;5071624;28;20461;-66
2021/08/05 01:09:53;;;;;;;3.47;2.80;;;15.10;99.90;;;;;;5070931;28;20516;-66
2021/08/05 01:12:26;;;;;;;3.67;2.70;;;15.10;99.90;;;;;;5071088;28;20556;-66
2021/08/05 01:15:02;;;;;;;3.20;2.93;;;15.10;99.90;;;;;;5071281;28;20478;-66
2021/08/05 01:17:31;;;;;;;3.13;2.87;;;15.10;99.90;;;;;;5071118;28;20555;-66
2021/08/05 01:19:59;;;;;;;3.97;3.50;;;15.00;99.90;;;;;;5070945;28;20466;-65
2021/08/05 01:22:31;;;;;;;4.37;2.70;;;15.00;99.90;;;;;;5071015;28;20462;-65
2021/08/05 01:25:02;;;;;;;5.53;3.30;;;15.00;99.90;;;;;;5071383;28;20478;-66
2021/08/05 01:27:32;;;;;;;3.33;2.80;;;15.10;99.90;;;;;;5071297;28;20466;-66
2021/08/05 01:30:00;;;;;;;2.83;2.63;;;15.00;99.90;;;;;;5070936;28;20563;-66
2021/08/05 01:32:27;;;;;;;3.73;2.83;;;15.00;99.90;;;;;;5070836;28;20470;-66
2021/08/05 01:34:55;;;;;;;3.03;2.73;;;15.00;99.90;;;;;;5071362;28;20482;-65
2021/08/05 01:37:24;;;;;;;3.07;2.77;;;15.00;99.90;;;;;;5070636;28;20462;-65
2021/08/05 01:39:51;;;;;;;4.67;2.80;;;15.00;99.90;;;;;;5070607;28;20481;-65
2021/08/05 01:42:20;;;;;;;4.97;3.00;;;15.00;99.90;;;;;;5070638;28;20486;-65
2021/08/05 01:44:51;;;;;;;3.17;2.87;;;15.00;99.90;;;;;;5070960;28;20512;-65
2021/08/05 01:47:20;;;;;;;2.87;2.47;;;14.90;99.90;;;;;;5070793;28;20808;-65
2021/08/05 01:49:48;;;;;;;3.47;2.70;;;14.90;99.90;;;;;;5070319;28;20520;-65
2021/08/05 01:52:17;;;;;;;3.17;2.87;;;14.90;99.90;;;;;;5070129;28;20458;-66
2021/08/05 01:54:44;;;;;;;3.20;2.77;;;14.90;99.90;;;;;;5070244;28;20459;-65
2021/08/05 01:57:11;;;;;;;3.23;2.70;;;14.90;99.90;;;;;;5070855;28;20462;-65
2021/08/05 01:59:38;;;;;;;5.10;3.17;;;14.90;99.90;;;;;;5070046;28;20463;-65
2021/08/05 02:02:07;;;;;;;4.00;3.60;;;14.90;99.90;;;;;;5070713;28;20486;-65
2021/08/05 02:04:44;;;;;;;4.00;3.10;;;14.90;99.90;;;;;;5070469;28;20458;-65
2021/08/05 02:07:15;;;;;;;3.30;2.97;;;14.90;99.90;;;;;;5070711;28;20520;-65
2021/08/05 02:09:46;;;;;;;3.70;3.27;;;14.90;99.90;;;;;;5070212;28;20470;-65
2021/08/05 02:12:13;;;;;;;3.57;3.27;;;14.90;99.90;;;;;;5070606;28;20482;-65
2021/08/05 02:14:40;;;;;;;3.43;3.13;;;14.90;99.90;;;;;;5070579;28;20459;-65
2021/08/05 02:17:10;;;;;;;3.23;2.63;;;14.90;99.90;;;;;;5070635;28;20484;-65
2021/08/05 02:19:37;;;;;;;3.80;2.70;;;14.90;99.90;;;;;;5070184;28;20863;-65
2021/08/05 02:22:04;;;;;;;3.33;3.00;;;14.90;99.90;;;;;;5070292;28;20523;-65
2021/08/05 02:24:31;;;;;;;4.17;3.37;;;15.00;99.90;;;;;;5070188;28;20477;-66
2021/08/05 02:26:59;;;;;;;5.40;3.60;;;15.00;99.90;;;;;;5070207;28;20463;-65
2021/08/05 02:29:27;;;;;;;5.00;3.47;;;15.00;99.90;;;;;;5069523;28;20461;-65
2021/08/05 02:31:55;;;;;;;4.00;3.20;;;15.00;99.90;;;;;;5069926;28;20964;-66
2021/08/05 02:34:24;;;;;;;3.37;3.07;;;15.00;99.90;;;;;;5069821;28;20469;-66
2021/08/05 02:36:51;;;;;;;3.40;3.10;;;14.90;99.90;;;;;;5070022;28;20856;-65
2021/08/05 02:39:18;;;;;;;3.93;3.53;;;14.90;99.90;;;;;;5069134;28;20473;-65
2021/08/05 02:41:47;;;;;;;3.90;3.50;;;14.90;99.90;;;;;;5069843;28;20491;-66
2021/08/05 02:44:16;;;;;;;5.10;3.17;;;14.90;99.90;;;;;;5069603;28;20827;-66
2021/08/05 02:46:42;;;;;;;3.23;2.93;;;14.90;99.90;;;;;;5069584;28;20482;-65
2021/08/05 02:49:10;;;;;;;4.63;3.30;;;14.90;99.90;;;;;;5069376;28;20461;-65
2021/08/05 02:51:38;;;;;;;3.57;3.27;;;14.90;99.90;;;;;;5069447;28;20470;-65
2021/08/05 02:54:05;;;;;;;5.93;3.83;;;14.90;99.90;;;;;;5069752;28;20463;-66
2021/08/05 02:56:33;;;;;;;6.00;3.80;;;14.90;99.90;;;;;;5069225;28;21090;-65
2021/08/05 02:59:00;;;;;;;3.53;3.23;;;14.90;99.90;;;;;;5069675;28;20465;-66
2021/08/05 03:01:27;;;;;;;3.63;3.33;;;14.90;99.90;;;;;;5068741;28;20486;-65
2021/08/05 03:03:54;;;;;;;3.57;3.27;;;14.90;99.90;;;;;;5069185;28;20565;-65
2021/08/05 03:06:26;;;;;;;4.30;3.60;;;14.90;99.90;;;;;;5066308;28;21201;-66
2021/08/05 03:08:54;;;;;;;8.23;3.37;;;14.90;99.90;;;;;;5068208;28;20823;-65
2021/08/05 03:11:21;;;;;;;5.83;3.80;;;14.90;99.90;;;;;;5068510;28;20455;-65
2021/08/05 03:13:48;;;;;;;6.37;3.50;;;14.90;99.90;;;;;;5068904;28;20470;-65
2021/08/05 03:16:16;;;;;;;4.03;3.63;;;14.90;99.90;;;;;;5069058;28;20877;-66
2021/08/05 03:18:43;;;;;;;3.40;3.10;;;14.90;99.90;;;;;;5069078;28;20469;-66
2021/08/05 03:21:10;;;;;;;5.30;3.40;;;14.90;99.90;;;;;;5068630;28;20493;-66
2021/08/05 03:23:37;;;;;;;4.57;3.70;;;14.90;99.90;;;;;;5068811;28;20466;-66
2021/08/05 03:26:05;;;;;;;4.30;3.80;;;14.90;99.90;;;;;;5069000;28;20514;-66
2021/08/05 03:28:32;;;;;;;3.83;3.40;;;14.90;99.90;;;;;;5068906;28;20458;-66
2021/08/05 03:30:58;;;;;;;5.77;3.87;;;14.90;99.90;;;;;;5068256;28;20489;-65
2021/08/05 03:33:25;;;;;;;6.33;4.00;;;14.90;99.90;;;;;;5068365;28;20465;-65
2021/08/05 03:35:52;;;;;;;5.83;3.87;;;14.90;99.90;;;;;;5067029;28;20478;-66
2021/08/05 03:38:19;;;;;;;3.50;3.20;;;14.90;99.90;;;;;;5065736;28;20462;-66
2021/08/05 03:40:46;;;;;;;3.60;3.30;;;14.90;99.90;;;;;;5065589;28;20463;-66
2021/08/05 03:43:14;;;;;;;4.63;3.83;;;14.90;99.90;;;;;;5065971;28;20462;-66
2021/08/05 03:45:41;;;;;;;4.90;3.43;;;14.80;99.90;;;;;;5066655;28;20839;-66
2021/08/05 03:48:07;;;;;;;4.40;3.47;;;14.80;99.90;;;;;;5066972;28;20464;-66
2021/08/05 03:50:34;;;;;;;4.50;4.10;;;14.80;99.90;;;;;;5066390;28;20469;-66
2021/08/05 03:53:01;;;;;;;3.67;3.20;;;14.80;99.90;;;;;;5068033;28;20458;-66
2021/08/05 03:55:28;;;;;;;4.63;3.87;;;14.80;99.90;;;;;;5068443;28;20489;-66
2021/08/05 03:57:54;;;;;;;4.00;3.70;;;14.80;99.90;;;;;;5068816;28;20965;-66
2021/08/05 04:00:23;;;;;;;4.77;4.23;;;14.80;99.90;;;;;;5067954;28;20462;-66
2021/08/05 04:02:49;;;;;;;4.70;3.57;;;14.80;99.90;;;;;;5068442;28;20997;-67
2021/08/05 04:05:16;;;;;;;3.40;3.10;;;14.80;99.90;;;;;;5068314;28;20989;-66
2021/08/05 04:07:43;;;;;;;5.60;3.33;;;14.90;99.90;;;;;;5068495;28;20458;-66
2021/08/05 04:10:10;;;;;;;4.27;3.43;;;14.90;99.90;;;;;;5067963;28;20459;-65
2021/08/05 04:12:37;;;;;;;3.83;3.43;;;14.90;99.90;;;;;;5068357;28;20491;-67
2021/08/05 04:15:05;;;;;;;4.50;3.40;;;14.90;99.90;;;;;;5068351;28;21050;-66
2021/08/05 04:17:34;;;;;;;5.00;3.90;;;14.90;99.90;;;;;;5071586;28;20966;-67
2021/08/05 04:20:01;;;;;;;3.90;3.50;;;14.90;99.90;;;;;;5072486;28;20470;-67
2021/08/05 04:22:28;;;;;;;3.90;3.33;;;14.90;99.90;;;;;;5072257;28;20997;-67
2021/08/05 04:24:54;;;;;;;5.43;4.47;;;14.90;99.90;;;;;;5072429;28;20481;-67
2021/08/05 04:27:21;;;;;;;6.37;3.60;;;14.90;99.90;;;;;;5072351;28;20834;-67
2021/08/05 04:29:48;;;;;;;3.53;3.23;;;14.90;99.90;;;;;;5072170;28;20470;-67
2021/08/05 04:32:14;;;;;;;4.07;3.43;;;14.90;99.90;;;;;;5072140;28;20469;-67
2021/08/05 04:34:42;;;;;;;5.00;3.80;;;14.90;99.90;;;;;;5072212;28;20470;-67
2021/08/05 04:37:09;;;;;;;4.00;3.60;;;14.90;99.90;;;;;;5072085;28;20469;-67
2021/08/05 04:39:36;;;;;;;3.77;3.37;;;14.90;99.90;;;;;;5085964;22;20490;-70
2021/08/05 04:42:03;;;;;;;5.37;3.47;;;14.90;99.90;;;;;;5071620;28;20478;-70
2021/08/05 04:44:30;;;;;;;4.17;3.77;;;14.90;99.90;;;;;;5072124;28;20470;-70
2021/08/05 04:46:57;;;;;;;4.00;3.60;;;14.90;99.90;;;;;;5072148;28;20489;-69
2021/08/05 04:49:24;;;;;;;4.73;4.20;;;14.90;99.90;;;;;;5071084;28;20931;-70
2021/08/05 04:51:53;;;;;;;4.70;3.73;;;14.90;99.90;;;;;;5072260;28;20460;-69
2021/08/05 04:54:20;;;;;;;4.10;3.70;;;14.90;99.90;;;;;;5071541;28;20493;-69
2021/08/05 04:56:47;;;;;;;5.43;3.87;;;14.90;99.90;;;;;;5071873;28;20501;-69
2021/08/05 04:59:14;;;;;;;5.57;4.43;;;15.00;99.90;;;;;;5071126;28;20633;-69
2021/08/05 05:01:40;;;;;;;4.10;3.70;;;15.00;99.90;;;;;;5071675;28;20482;-70
2021/08/05 05:04:07;;;;;;;4.00;3.57;;;15.00;99.90;;;;;;5071532;28;20454;-69
2021/08/05 05:06:34;;;;;;;7.33;3.93;;;15.00;99.90;;;;;;5071596;28;20980;-69
2021/08/05 05:09:02;;;;;;;4.77;4.37;;;15.00;99.90;;;;;;5071627;28;20466;-70
2021/08/05 05:11:30;;;;;;;4.73;4.33;;;15.00;99.90;;;;;;5070850;28;21010;-69
2021/08/05 05:13:56;;;;;;;4.37;3.97;;;15.00;99.90;;;;;;5071497;28;20501;-69
2021/08/05 05:16:23;;;;;;;4.40;3.80;;;15.00;99.90;;;;;;5070642;28;20888;-70
2021/08/05 05:18:50;;;;;;;4.10;3.73;;;15.10;99.90;;;;;;5071342;28;20492;-69
2021/08/05 05:21:17;;;;;;;5.07;4.07;;;15.10;99.90;;;;;;5070893;28;20462;-69
2021/08/05 05:23:44;;;;;;;4.50;3.90;;;15.10;99.90;;;;;;5071387;28;20994;-69
2021/08/05 05:26:12;;;;;;;5.03;3.90;;;15.10;99.90;;;;;;5071323;28;20474;-69
2021/08/05 05:28:39;;;;;;;4.60;4.20;;;15.10;99.90;;;;;;5071121;28;20469;-69
2021/08/05 05:31:06;;;;;;;4.07;3.70;;;15.10;99.90;;;;;;5070742;28;20467;-69
2021/08/05 05:33:32;;;;;;;4.50;4.10;;;15.20;99.90;;;;;;5070746;28;20454;-69
2021/08/05 05:35:59;;;;;;;5.43;3.50;;;15.20;99.90;;;;;;5071150;28;20493;-69
2021/08/05 05:38:26;;;;;;;3.83;3.43;;;15.20;99.90;;;;;;5070674;28;20779;-69
2021/08/05 05:40:53;;;;;;;4.03;3.63;;;15.10;99.90;;;;;;5070620;28;20817;-69
2021/08/05 05:43:21;;;;;;;3.87;3.50;;;15.10;99.90;;;;;;5070614;28;20494;-69
2021/08/05 05:45:48;;;;;;;4.30;3.90;;;15.10;99.90;;;;;;5070894;28;20482;-69
2021/08/05 05:48:14;;;;;;;4.90;4.00;;;15.10;99.90;;;;;;5070703;28;20462;-69
2021/08/05 05:50:41;;;;;;;6.93;3.93;;;15.10;99.90;;;;;;5070604;28;20462;-69
2021/08/05 05:53:08;;;;;;;6.60;3.40;;;15.00;99.90;;;;;;5070760;28;20863;-69
2021/08/05 05:55:35;;;;;;;4.13;3.73;;;15.00;99.90;;;;;;5070476;28;21031;-69
2021/08/05 05:58:01;;;;;;;4.20;3.60;;;15.00;99.90;;;;;;5070840;28;20958;-69
2021/08/05 06:00:29;;;;;;;5.73;3.83;;;15.00;99.90;;;;;;5069872;28;20466;-69
2021/08/05 06:02:56;;;;;;;5.00;3.60;;;15.00;99.90;;;;;;5070706;28;20482;-69
2021/08/05 06:05:23;;;;;;;7.33;3.80;;;15.00;99.90;;;;;;5070298;28;20490;-69
2021/08/05 06:07:51;;;;;;;6.73;4.10;;;15.10;99.90;;;;;;5070648;28;20500;-68
2021/08/05 06:10:20;;;;;;;5.13;3.63;;;15.10;99.90;;;;;;5069829;28;20466;-69
2021/08/05 06:12:47;;;;;;;6.50;3.60;;;15.10;99.90;;;;;;5068193;28;20831;-69
2021/08/05 06:15:15;;;;;;;3.80;3.27;;;15.20;99.90;;;;;;5055018;28;20479;-69
2021/08/05 06:17:45;;;;;;;4.97;4.00;;;15.20;99.90;;;;;;5060824;28;20485;-69
2021/08/05 06:20:14;;;;;;;5.10;3.73;;;15.20;99.90;;;;;;5057601;28;20844;-69
2021/08/05 06:22:42;;;;;;;6.10;4.27;;;15.30;99.90;;;;;;5050182;28;20491;-69
2021/08/05 06:25:10;;;;;;;4.37;3.73;;;15.30;99.90;;;;;;5050134;28;20602;-69
2021/08/05 06:27:37;;;;;;;3.93;3.63;;;15.30;99.90;;;;;;5049958;28;20459;-69
2021/08/05 06:30:05;;;;;;;3.57;3.27;;;15.30;99.90;;;;;;5049698;28;20470;-69
2021/08/05 06:32:32;;;;;;;7.40;3.20;;;15.30;99.90;;;;;;5049926;28;20459;-69
2021/08/05 06:35:00;;;;;;;5.33;3.77;;;15.30;99.90;;;;;;5049861;28;20487;-69
2021/08/05 06:37:27;;;;;;;3.43;3.00;;;15.30;99.90;;;;;;5049785;28;21001;-69
2021/08/05 06:39:53;;;;;;;4.57;3.23;;;15.40;99.90;;;;;;5048908;28;20467;-69
2021/08/05 06:42:20;;;;;;;3.53;3.23;;;15.40;99.90;;;;;;5049408;28;20537;-69
2021/08/05 06:44:47;;;;;;;4.20;3.63;;;15.50;99.90;;;;;;5049965;28;20455;-70
2021/08/05 06:47:13;;;;;;;3.10;2.80;;;15.60;99.90;;;;;;5049586;28;20463;-70
2021/08/05 06:49:40;;;;;;;3.60;3.30;;;15.60;99.90;;;;;;5049619;28;20459;-69
2021/08/05 06:52:08;;;;;;;3.80;3.50;;;15.70;99.90;;;;;;5069715;28;20462;-70
2021/08/05 06:54:35;;;;;;;4.07;3.70;;;15.70;99.90;;;;;;5069375;28;20461;-69
2021/08/05 06:57:04;;;;;;;3.97;2.83;;;15.80;99.90;;;;;;5068416;28;20831;-70
2021/08/05 06:59:31;;;;;;;3.30;3.00;;;15.90;99.90;;;;;;5069572;28;20494;-70
2021/08/05 07:01:58;;;;;;;4.93;2.77;;;15.90;99.90;;;;;;5069533;28;20469;-69
2021/08/05 07:04:25;;;;;;;4.30;3.13;;;16.10;99.90;;;;;;5069928;28;20953;-70
2021/08/05 07:06:52;;;;;;;3.43;3.13;;;16.20;99.90;;;;;;5069609;28;20479;-69
2021/08/05 07:09:20;;;;;;;4.67;2.97;;;16.30;99.90;;;;;;5069186;28;20458;-69
2021/08/05 07:11:46;;;;;;;2.77;2.57;;;16.40;99.90;;;;;;5069643;28;20469;-70
2021/08/05 07:14:13;;;;;;;3.47;3.13;;;16.50;99.90;;;;;;5069356;28;20508;-69
2021/08/05 07:16:40;;;;;;;2.70;2.50;;;16.50;99.90;;;;;;5069564;28;20482;-69
2021/08/05 07:19:06;;;;;;;3.33;3.03;;;16.60;99.90;;;;;;5068968;28;20546;-69
2021/08/05 07:21:33;;;;;;;3.40;2.57;;;16.70;99.90;;;;;;5069659;28;20462;-69
2021/08/05 07:24:00;;;;;;;4.37;3.20;;;16.70;99.90;;;;;;5069191;28;20493;-69
2021/08/05 07:26:28;;;;;;;3.20;2.73;;;16.80;99.90;;;;;;5069510;28;20486;-69
2021/08/05 07:28:55;;;;;;;3.40;2.87;;;16.80;99.90;;;;;;5068351;28;20684;-69
2021/08/05 07:31:22;;;;;;;2.60;2.40;;;16.90;99.90;;;;;;5069066;28;20466;-69
2021/08/05 07:33:50;;;;;;;8.30;3.00;;;17.00;99.90;;;;;;5069491;28;20455;-69
2021/08/05 07:36:17;;;;;;;6.57;3.03;;;17.10;99.90;;;;;;5069486;28;20917;-69
2021/08/05 07:38:44;;;;;;;3.63;3.30;;;17.10;99.90;;;;;;5069432;28;20459;-69
2021/08/05 07:41:11;;;;;;;3.20;2.60;;;17.20;99.90;;;;;;5067877;28;20462;-69
2021/08/05 07:43:39;;;;;;;2.93;2.63;;;17.20;99.90;;;;;;5068942;28;20505;-69
2021/08/05 07:51:09;;;;;;;4.60;3.30;;;17.30;99.90;;;;;;5021090;28;20477;-76
2021/08/05 07:53:36;;;;;;;3.03;2.77;;;17.30;99.90;;;;;;5028612;28;20473;-75
2021/08/05 07:56:02;;;;;;;4.50;3.00;;;17.30;99.90;;;;;;5029036;28;20541;-76
2021/08/05 07:58:29;;;;;;;3.70;3.03;;;17.40;99.90;;;;;;5028338;28;20460;-76
2021/08/05 08:00:57;;;;;;;3.40;2.43;;;17.40;99.90;;;;;;5029103;28;20514;-75
2021/08/05 08:03:24;;;;;;;3.30;3.00;;;17.50;99.90;;;;;;5028798;28;20499;-76
2021/08/05 08:05:51;;;;;;;3.50;2.80;;;17.50;99.90;;;;;;5026387;28;20492;-74
2021/08/05 08:08:17;;;;;;;3.40;3.03;;;17.60;99.90;;;;;;5026713;28;20464;-75
2021/08/05 08:10:45;;;;;;;2.90;2.60;;;17.60;99.90;;;;;;5027835;28;20472;-75
2021/08/05 08:13:12;;;;;;;2.77;2.57;;;17.60;99.90;;;;;;5027960;28;20460;-75
2021/08/05 08:15:39;;;;;;;4.73;3.30;;;17.70;99.90;;;;;;5027328;28;20903;-76
2021/08/05 08:18:08;;;;;;;3.93;3.17;;;17.70;99.90;;;;;;5026757;28;20841;-72
2021/08/05 08:20:36;;;;;;;3.10;2.77;;;17.70;99.90;;;;;;5026944;28;20457;-71
2021/08/05 08:23:04;;;;;;;3.30;3.00;;;17.70;99.90;;;;;;5022778;28;20579;-72
2021/08/05 08:25:31;;;;;;;5.07;2.87;;;17.70;99.90;;;;;;5026843;28;20491;-72
2021/08/05 08:27:58;;;;;;;2.80;2.60;;;17.80;99.90;;;;;;5026861;28;20460;-76
2021/08/05 08:30:26;;;;;;;3.13;2.93;;;17.80;99.90;;;;;;5026765;28;20468;-72
2021/08/05 08:32:53;;;;;;;2.93;2.70;;;17.80;99.90;;;;;;5026398;28;20530;-73
2021/08/05 08:35:22;;;;;;;3.33;3.03;;;17.80;99.90;;;;;;5027355;28;21210;-72
2021/08/05 08:37:49;;;;;;;3.03;2.60;;;17.90;99.90;;;;;;5025868;28;20460;-72
2021/08/05 08:40:17;;;;;;;4.97;2.77;;;17.90;99.90;;;;;;5027432;28;20818;-72
2021/08/05 08:42:45;;;;;;;2.93;2.63;;;17.90;99.90;;;;;;5025864;28;20508;-73
2021/08/05 08:45:14;;;;;;;3.60;3.20;;;17.90;99.90;;;;;;5026166;28;20492;-71
2021/08/05 08:47:51;;;;;;;3.43;3.13;;;17.90;99.90;;;;;;5025413;28;20470;-73
2021/08/05 08:50:23;;;;;;;3.13;2.90;;;17.90;99.90;;;;;;5025069;28;20468;-75
2021/08/05 08:52:55;;;;;;;3.43;2.87;;;17.90;99.90;;;;;;5025062;28;20460;-75
2021/08/05 08:55:23;;;;;;;5.17;3.10;;;18.00;99.90;;;;;;5025960;28;21084;-74
2021/08/05 08:57:54;;;;;;;3.87;3.20;;;18.00;99.90;;;;;;5021767;28;20525;-74
2021/08/05 09:00:21;;;;;;;2.90;2.63;;;18.10;99.90;;;;;;5023274;28;20468;-73
2021/08/05 09:02:49;;;;;;;3.40;3.10;;;18.20;99.90;;;;;;5028673;28;20583;-72
2021/08/05 09:05:16;;;;;;;2.73;2.47;;;18.20;99.90;;;;;;5029631;28;20484;-72
2021/08/05 09:07:45;;;;;;;3.00;2.70;;;18.20;99.90;;;;;;5029787;28;21049;-72
2021/08/05 09:10:14;;;;;;;3.00;2.70;;;18.20;99.90;;;;;;5035740;28;20448;-73
2021/08/05 09:12:44;;;;;;;2.47;2.00;;;18.30;99.90;;;;;;5029226;28;20467;-72
2021/08/05 09:15:12;;;;;;;2.63;2.43;;;18.40;99.90;;;;;;5029929;28;20506;-72
2021/08/05 09:17:42;;;;;;;2.20;2.00;;;18.50;99.90;;;;;;5029743;28;20468;-71
2021/08/05 09:20:12;;;;;;;2.30;2.10;;;18.60;99.90;;;;;;5029714;28;20467;-71
2021/08/05 09:22:41;;;;;;;2.13;1.93;;;18.70;99.90;;;;;;5029691;28;21019;-71
2021/08/05 09:25:25;;;;;;;2.20;1.87;;;18.90;99.90;;;;;;5029895;28;20488;-72
2021/08/05 09:27:55;;;;;;;4.03;2.03;;;19.00;99.90;;;;;;5026791;28;20551;-73
2021/08/05 09:30:34;;;;;;;4.00;2.37;;;19.20;99.90;;;;;;5029594;28;20460;-72
2021/08/05 09:33:09;;;;;;;2.40;2.10;;;19.30;99.90;;;;;;5030192;28;20543;-73
2021/08/05 09:35:37;;;;;;;3.20;2.33;;;19.50;99.90;;;;;;5029179;28;20486;-72
2021/08/05 09:38:21;;;;;;;3.60;2.30;;;19.50;99.90;;;;;;5029333;28;21041;-72
2021/08/05 09:40:55;;;;;;;7.20;2.60;;;19.60;99.90;;;;;;5029636;28;20972;-72
2021/08/05 09:43:27;;;;;;;2.13;1.93;;;19.60;99.90;;;;;;5028908;28;20488;-73
2021/08/05 09:45:54;;;;;;;2.57;2.37;;;19.60;99.90;;;;;;5029491;28;20468;-72
2021/08/05 09:48:35;;;;;;;2.40;2.20;;;19.70;99.90;;;;;;5029251;28;20496;-72
2021/08/05 09:51:13;;;;;;;2.33;2.13;;;19.80;99.90;;;;;;5029153;28;20846;-73
2021/08/05 09:54:04;;;;;;;2.07;1.97;;;19.80;99.90;;;;;;5029071;28;20460;-72
2021/08/05 09:56:35;;;;;;;2.17;1.83;;;19.90;99.90;;;;;;5029677;28;20488;-73
2021/08/05 09:59:11;;;;;;;2.20;1.63;;;19.90;99.90;;;;;;5029145;28;20477;-72
2021/08/05 10:01:57;;;;;;;1.90;1.80;;;19.90;99.90;;;;;;5029522;28;20460;-72
2021/08/05 10:04:29;;;;;;;2.57;2.37;;;19.90;99.90;;;;;;5028665;28;20484;-72
2021/08/05 10:07:01;;;;;;;2.80;2.30;;;19.80;99.90;;;;;;5029050;28;20603;-73
2021/08/05 10:09:29;;;;;;;1.80;1.70;;;19.80;99.90;;;;;;5027767;28;20460;-74
2021/08/05 10:12:14;;;;;;;2.20;2.00;;;19.70;99.90;;;;;;5027184;28;20468;-75
2021/08/05 10:14:42;;;;;;;2.40;2.00;;;19.60;99.90;;;;;;5027921;28;20465;-72
2021/08/05 10:17:12;;;;;;;3.70;1.70;;;19.70;99.90;;;;;;5010899;28;20862;-71
2021/08/05 10:19:40;;;;;;;2.20;1.90;;;19.70;99.90;;;;;;5027797;28;20461;-72
2021/08/05 10:22:08;;;;;;;2.83;2.27;;;19.80;99.90;;;;;;5027905;28;20456;-72
2021/08/05 10:24:38;;;;;;;2.37;2.17;;;20.00;99.90;;;;;;5028426;28;20480;-73
2021/08/05 10:27:08;;;;;;;1.83;1.73;;;20.00;99.90;;;;;;5027963;28;20466;-71
2021/08/05 10:29:37;;;;;;;2.20;2.00;;;20.10;99.90;;;;;;5028159;28;20853;-73
2021/08/05 10:32:06;;;;;;;3.30;1.80;;;20.20;99.90;;;;;;5028066;28;20486;-72
2021/08/05 10:34:35;;;;;;;1.97;1.77;;;20.20;99.90;;;;;;5028001;28;20460;-71
2021/08/05 10:37:02;;;;;;;1.93;1.70;;;20.30;99.90;;;;;;5028938;28;20465;-71
2021/08/05 10:39:29;;;;;;;1.73;1.63;;;20.40;99.90;;;;;;5027628;28;20472;-72
2021/08/05 10:41:59;;;;;;;1.73;1.63;;;20.50;99.90;;;;;;5026754;28;20457;-72
2021/08/05 10:44:28;;;;;;;2.17;1.90;;;20.70;99.90;;;;;;5028349;28;20565;-74
2021/08/05 10:46:57;;;;;;;3.00;1.80;;;20.70;99.90;;;;;;5027672;28;20530;-72
2021/08/05 10:49:25;;;;;;;1.40;1.30;;;20.60;99.90;;;;;;5025424;28;21261;-71
2021/08/05 10:51:52;;;;;;;1.87;1.63;;;20.50;99.90;;;;;;5027867;28;20563;-72
2021/08/05 10:54:49;;;;;;;1.60;1.50;;;20.50;99.90;;;;;;5028366;28;20455;-73
2021/08/05 10:57:18;;;;;;;2.13;1.93;;;20.40;99.90;;;;;;5029478;28;20491;-74
2021/08/05 11:00:01;;;;;;;1.50;1.40;;;20.30;99.90;;;;;;5030877;28;20500;-74
2021/08/05 11:02:46;;;;;;;1.57;1.47;;;20.40;99.90;;;;;;5027724;28;20460;-73
2021/08/05 11:05:33;;;;;;;2.60;1.80;;;20.50;99.90;;;;;;5026322;28;20496;-73
2021/08/05 11:08:24;;;;;;;2.37;2.00;;;20.70;99.90;;;;;;5024942;28;20466;-73
2021/08/05 11:10:51;;;;;;;2.23;2.03;;;20.90;99.90;;;;;;5026302;28;20468;-73
2021/08/05 11:13:21;;;;;;;2.00;1.80;;;20.90;99.90;;;;;;5028015;28;20464;-76
2021/08/05 11:15:53;;;;;;;2.07;1.83;;;20.90;99.90;;;;;;5028004;28;20511;-75
2021/08/05 11:18:27;;;;;;;2.03;1.70;;;20.80;99.90;;;;;;5025207;28;20818;-75
2021/08/05 11:21:26;;;;;;;2.37;1.60;;;20.70;99.90;;;;;;5027648;28;20730;-75
2021/08/05 11:23:53;;;;;;;2.13;1.50;;;20.70;99.90;;;;;;5027585;28;20520;-74
2021/08/05 11:26:21;;;;;;;2.27;2.07;;;20.70;99.90;;;;;;5027107;28;20476;-74
2021/08/05 11:28:51;;;;;;;2.30;1.87;;;20.70;99.90;;;;;;5027617;28;20974;-75
2021/08/05 11:31:31;;;;;;;1.73;1.63;;;20.70;99.90;;;;;;5026179;28;20467;-75
2021/08/05 11:33:58;;;;;;;1.90;1.70;;;20.70;99.90;;;;;;5024534;28;20549;-75
2021/08/05 11:36:28;;;;;;;1.90;1.80;;;20.70;99.90;;;;;;5027653;28;20476;-75
2021/08/05 11:39:12;;;;;;;2.43;1.70;;;20.70;99.90;;;;;;5023953;28;20845;-75
2021/08/05 11:41:47;;;;;;;2.57;1.87;;;20.70;99.90;;;;;;5023028;28;21032;-75
2021/08/05 11:44:21;;;;;;;1.70;1.60;;;20.80;99.90;;;;;;5026795;28;20515;-74
2021/08/05 11:47:29;;;;;;;1.80;1.63;;;20.90;99.90;;;;;;5026893;28;20476;-74
2021/08/05 11:49:59;;;;;;;1.50;1.33;;;20.90;99.90;;;;;;5023783;28;20468;-74
2021/08/05 11:52:34;;;;;;;3.00;1.50;;;20.80;99.90;;;;;;5027609;28;20469;-75
2021/08/05 11:55:04;;;;;;;3.03;1.97;;;20.80;99.90;;;;;;5035144;28;20475;-75
2021/08/05 11:57:36;;;;;;;2.10;1.70;;;20.70;99.90;;;;;;5033215;28;20481;-74
2021/08/05 12:00:06;;;;;;;1.80;1.70;;;20.70;99.90;;;;;;5036027;28;20959;-75
2021/08/05 12:02:34;;;;;;;3.60;1.87;;;20.70;99.90;;;;;;5034541;28;20475;-74
2021/08/05 12:05:01;;;;;;;1.63;1.47;;;20.70;99.90;;;;;;5035894;28;20998;-74
2021/08/05 12:07:30;;;;;;;2.17;1.97;;;20.90;99.90;;;;;;5038331;28;20463;-74
2021/08/05 12:10:00;;;;;;;2.13;1.80;;;21.20;99.90;;;;;;5036597;28;20906;-74
2021/08/05 12:12:29;;;;;;;2.00;1.80;;;21.40;99.90;;;;;;5034346;28;20460;-74
2021/08/05 12:14:57;;;;;;;2.63;1.60;;;21.50;99.90;;;;;;5037333;28;20471;-75
2021/08/05 12:17:40;;;;;;;2.03;1.83;;;21.60;99.90;;;;;;5038068;28;20465;-74
2021/08/05 12:20:11;;;;;;;2.37;2.17;;;21.70;99.90;;;;;;5036731;28;20495;-74
2021/08/05 12:22:39;;;;;;;2.17;1.73;;;21.80;99.90;;;;;;5036863;28;20464;-74
2021/08/05 12:25:11;;;;;;;1.63;1.53;;;22.00;99.90;;;;;;5032538;28;20487;-74
2021/08/05 12:27:39;;;;;;;1.60;1.50;;;21.90;99.90;;;;;;5036176;28;20456;-74
2021/08/05 12:30:09;;;;;;;2.20;1.80;;;21.80;99.90;;;;;;5024673;28;20481;-74
2021/08/05 12:32:37;;;;;;;1.73;1.40;;;21.60;99.90;;;;;;5026529;28;21359;-74
2021/08/05 12:35:12;;;;;;;2.23;1.80;;;21.50;99.90;;;;;;5026561;28;20858;-74
2021/08/05 12:37:39;;;;;;;2.00;1.50;;;21.30;99.90;;;;;;5028188;28;21101;-74
2021/08/05 12:40:10;;;;;;;2.07;1.87;;;21.10;99.90;;;;;;5031028;28;20491;-75
2021/08/05 12:42:38;;;;;;;2.37;1.97;;;21.00;99.90;;;;;;5031342;28;20474;-73
2021/08/05 12:45:06;;;;;;;1.93;1.73;;;20.80;99.90;;;;;;5030976;28;20491;-74
2021/08/05 12:47:33;;;;;;;2.13;1.93;;;20.60;99.90;;;;;;5029859;28;20959;-74
2021/08/05 12:50:06;;;;;;;2.17;2.07;;;20.40;99.90;;;;;;5026657;28;20479;-76
2021/08/05 12:52:40;;;;;;;2.20;1.73;;;20.30;99.90;;;;;;5031685;28;20829;-74
2021/08/05 12:55:09;;;;;;;2.10;1.90;;;20.10;99.90;;;;;;5031140;28;20484;-74
2021/08/05 12:57:38;;;;;;;2.50;2.20;;;19.90;99.90;;;;;;5030655;28;20464;-75
2021/08/05 13:00:21;;;;;;;3.70;2.07;;;19.80;99.90;;;;;;5031519;28;20500;-75
2021/08/05 13:02:56;;;;;;;1.73;1.53;;;19.70;99.90;;;;;;5030611;28;20462;-74